This is the latest recevied weather packets stored in our database for station/object KO4APQ. If no packets are shown the sender has not sent any weather packets the latest 10 day(s).
| Time | Temp. | Humidity | Pressure | Rain* | Wind** | Luminosity | Snow |
|---|---|---|---|---|---|---|---|
| 1777822576 | 16.67° C | 41% | 1021.3 hPa | 0 mm | - | 875 W/m² | - |
| 1777822274 | 17.22° C | 40% | 1021.2 hPa | 0 mm | - | 864 W/m² | - |
| 1777821971 | 16.67° C | 44% | 1021.2 hPa | 0 mm | - | 852 W/m² | - |
| 1777821669 | 16.11° C | 44% | 1021.3 hPa | 0 mm | - | 840 W/m² | - |
| 1777821367 | 16.67° C | 40% | 1021.4 hPa | 0 mm | - | 829 W/m² | - |
| 1777821063 | 16.11° C | 43% | 1021.2 hPa | 0 mm | - | 815 W/m² | - |
| 1777820760 | 15.56° C | 46% | 1021.2 hPa | 0 mm | - | 803 W/m² | - |
| 1777820456 | 15.56° C | 43% | 1021.1 hPa | 0 mm | - | 790 W/m² | - |
| 1777820153 | 15.56° C | 41% | 1021 hPa | 0 mm | - | 776 W/m² | - |
| 1777819850 | 15.56° C | 44% | 1021.2 hPa | 0 mm | - | 761 W/m² | - |
| 1777819548 | 16.11° C | 45% | 1021.3 hPa | 0 mm | - | 747 W/m² | - |
| 1777819245 | 15.56° C | 50% | 1021.1 hPa | 0 mm | - | 730 W/m² | - |
| 1777818942 | 15.56° C | 52% | 1021.1 hPa | 0 mm | - | 715 W/m² | - |
| 1777818638 | 15.56° C | 52% | 1021.1 hPa | 0 mm | - | 698 W/m² | - |
| 1777818336 | 15° C | 51% | 1021 hPa | 0 mm | - | 683 W/m² | - |
| 1777818032 | 14.44° C | 55% | 1021.1 hPa | 0 mm | - | 666 W/m² | - |
| 1777817729 | 14.44° C | 56% | 1020.9 hPa | 0 mm | - | 649 W/m² | - |
| 1777817426 | 13.89° C | 58% | 1021.2 hPa | 0 mm | - | 630 W/m² | - |
| 1777817122 | 13.89° C | 55% | 1021.3 hPa | 0 mm | - | 615 W/m² | - |
| 1777816820 | 13.89° C | 54% | 1021.1 hPa | 0 mm | - | 597 W/m² | - |
| 1777816517 | 13.89° C | 57% | 1021.1 hPa | 0 mm | - | 578 W/m² | - |
| 1777816214 | 13.89° C | 56% | 1021 hPa | 0 mm | - | 560 W/m² | - |
| 1777815912 | 13.33° C | 58% | 1021 hPa | 0 mm | - | 539 W/m² | - |
| 1777815609 | 12.78° C | 58% | 1020.9 hPa | 0 mm | - | 505 W/m² | - |
| 1777815306 | 12.78° C | 62% | 1020.9 hPa | 0 mm | - | 451 W/m² | - |
* Rain latest hour (hover to see other rain measurements)
** Current wind speed in m/s (hover to see current wind gust speed)